sensor_id;sensor_type;location;lat;lon;timestamp;pressure;altitude;pressure_sealevel;temperature;humidity
39449;BME280;25151;45.566;9.382;2023-12-20T00:02:01;99815.59;;;19.98;55.43
39449;BME280;25151;45.566;9.382;2023-12-20T00:04:28;99813.25;;;19.96;55.31
39449;BME280;25151;45.566;9.382;2023-12-20T00:06:55;99803.28;;;19.95;55.33
39449;BME280;25151;45.566;9.382;2023-12-20T00:09:22;99796.13;;;19.94;55.37
39449;BME280;25151;45.566;9.382;2023-12-20T00:11:49;99797.34;;;19.93;55.46
39449;BME280;25151;45.566;9.382;2023-12-20T00:14:16;99796.13;;;19.94;55.17
39449;BME280;25151;45.566;9.382;2023-12-20T00:16:43;99788.97;;;19.93;55.49
39449;BME280;25151;45.566;9.382;2023-12-20T00:19:10;99785.38;;;19.93;55.34
39449;BME280;25151;45.566;9.382;2023-12-20T00:21:36;99773.81;;;19.90;55.38
39449;BME280;25151;45.566;9.382;2023-12-20T00:24:03;99784.25;;;19.90;55.39
39449;BME280;25151;45.566;9.382;2023-12-20T00:26:29;99777.09;;;19.89;55.40
39449;BME280;25151;45.566;9.382;2023-12-20T00:28:56;99769.94;;;19.88;55.44
39449;BME280;25151;45.566;9.382;2023-12-20T00:31:23;99772.72;;;19.88;55.29
39449;BME280;25151;45.566;9.382;2023-12-20T00:33:49;99761.63;;;19.84;55.35
39449;BME280;25151;45.566;9.382;2023-12-20T00:36:16;99765.53;;;19.87;55.39
39449;BME280;25151;45.566;9.382;2023-12-20T00:38:43;99756.38;;;19.86;55.63
39449;BME280;25151;45.566;9.382;2023-12-20T00:41:10;99737.22;;;19.85;55.42
39449;BME280;25151;45.566;9.382;2023-12-20T00:43:37;99726.03;;;19.85;55.27
39449;BME280;25151;45.566;9.382;2023-12-20T00:46:04;99733.31;;;19.82;55.36
39449;BME280;25151;45.566;9.382;2023-12-20T00:48:31;99734.09;;;19.83;55.45
39449;BME280;25151;45.566;9.382;2023-12-20T00:50:58;99721.34;;;19.82;55.49
39449;BME280;25151;45.566;9.382;2023-12-20T00:53:24;99718.53;;;19.82;55.44
39449;BME280;25151;45.566;9.382;2023-12-20T00:55:51;99714.19;;;19.81;55.32
39449;BME280;25151;45.566;9.382;2023-12-20T00:58:18;99722.56;;;19.81;55.56
39449;BME280;25151;45.566;9.382;2023-12-20T01:00:45;99723.81;;;19.80;55.45
39449;BME280;25151;45.566;9.382;2023-12-20T01:03:12;99728.59;;;19.79;55.40
39449;BME280;25151;45.566;9.382;2023-12-20T01:05:40;99719.41;;;19.79;55.44
39449;BME280;25151;45.566;9.382;2023-12-20T01:08:07;99731.84;;;19.78;55.23
39449;BME280;25151;45.566;9.382;2023-12-20T01:10:33;99729.81;;;19.78;55.47
39449;BME280;25151;45.566;9.382;2023-12-20T01:13:00;99730.28;;;19.77;55.39
39449;BME280;25151;45.566;9.382;2023-12-20T01:15:27;99725.13;;;19.75;55.40
39449;BME280;25151;45.566;9.382;2023-12-20T01:17:53;99722.78;;;19.74;55.22
39449;BME280;25151;45.566;9.382;2023-12-20T01:20:23;99717.19;;;19.74;55.41
39449;BME280;25151;45.566;9.382;2023-12-20T01:22:49;99712.81;;;19.73;55.24
39449;BME280;25151;45.566;9.382;2023-12-20T01:25:16;99708.44;;;19.72;55.60
39449;BME280;25151;45.566;9.382;2023-12-20T01:27:43;99712.47;;;19.71;55.41
39449;BME280;25151;45.566;9.382;2023-12-20T01:30:10;99717.63;;;19.72;55.34
39449;BME280;25151;45.566;9.382;2023-12-20T01:32:37;99696.47;;;19.71;55.44
39449;BME280;25151;45.566;9.382;2023-12-20T01:35:04;99703.31;;;19.70;55.53
39449;BME280;25151;45.566;9.382;2023-12-20T01:37:31;99700.97;;;19.69;55.49
39449;BME280;25151;45.566;9.382;2023-12-20T01:39:57;99704.09;;;19.71;55.51
39449;BME280;25151;45.566;9.382;2023-12-20T01:42:24;99693.78;;;19.68;55.34
39449;BME280;25151;45.566;9.382;2023-12-20T01:44:51;99688.19;;;19.68;55.57
39449;BME280;25151;45.566;9.382;2023-12-20T01:47:18;99682.59;;;19.68;55.61
39449;BME280;25151;45.566;9.382;2023-12-20T01:49:45;99678.22;;;19.67;55.30
39449;BME280;25151;45.566;9.382;2023-12-20T01:52:12;99669.06;;;19.66;55.49
39449;BME280;25151;45.566;9.382;2023-12-20T01:54:41;99660.34;;;19.64;55.59
39449;BME280;25151;45.566;9.382;2023-12-20T01:57:09;99655.19;;;19.62;55.44
39449;BME280;25151;45.566;9.382;2023-12-20T01:59:37;99645.56;;;19.63;55.62
39449;BME280;25151;45.566;9.382;2023-12-20T02:02:05;99644.34;;;19.64;55.62
39449;BME280;25151;45.566;9.382;2023-12-20T02:04:34;99649.59;;;19.62;55.35
39449;BME280;25151;45.566;9.382;2023-12-20T02:07:01;99646.78;;;19.62;55.42
39449;BME280;25151;45.566;9.382;2023-12-20T02:09:28;99639.63;;;19.61;55.55
39449;BME280;25151;45.566;9.382;2023-12-20T02:11:55;99638.81;;;19.61;55.45
39449;BME280;25151;45.566;9.382;2023-12-20T02:14:22;99632.44;;;19.60;55.50
39449;BME280;25151;45.566;9.382;2023-12-20T02:16:48;99640.84;;;19.60;55.45
39449;BME280;25151;45.566;9.382;2023-12-20T02:19:15;99636.47;;;19.59;55.36
39449;BME280;25151;45.566;9.382;2023-12-20T02:21:44;99632.09;;;19.58;55.51
39449;BME280;25151;45.566;9.382;2023-12-20T02:24:11;99622.16;;;19.57;55.49
39449;BME280;25151;45.566;9.382;2023-12-20T02:26:38;99628.97;;;19.56;55.42
39449;BME280;25151;45.566;9.382;2023-12-20T02:29:05;99627.75;;;19.57;55.39
39449;BME280;25151;45.566;9.382;2023-12-20T02:31:31;99616.97;;;19.56;55.49
39449;BME280;25151;45.566;9.382;2023-12-20T02:33:58;99624.59;;;19.55;55.60
39449;BME280;25151;45.566;9.382;2023-12-20T02:36:25;99626.19;;;19.56;55.31
39449;BME280;25151;45.566;9.382;2023-12-20T02:38:52;99631.78;;;19.56;55.62
39449;BME280;25151;45.566;9.382;2023-12-20T02:41:19;99623.03;;;19.54;55.56
39449;BME280;25151;45.566;9.382;2023-12-20T02:43:47;99615.88;;;19.53;55.63
39449;BME280;25151;45.566;9.382;2023-12-20T02:46:16;99612.31;;;19.53;55.59
39449;BME280;25151;45.566;9.382;2023-12-20T02:48:43;99609.50;;;19.53;55.53
39449;BME280;25151;45.566;9.382;2023-12-20T02:51:10;99615.88;;;19.53;55.44
39449;BME280;25151;45.566;9.382;2023-12-20T02:53:37;99615.53;;;19.51;55.42
39449;BME280;25151;45.566;9.382;2023-12-20T02:56:04;99618.34;;;19.51;55.52
39449;BME280;25151;45.566;9.382;2023-12-20T02:58:31;99610.41;;;19.50;55.35
39449;BME280;25151;45.566;9.382;2023-12-20T03:00:58;99609.63;;;19.49;55.45
39449;BME280;25151;45.566;9.382;2023-12-20T03:03:25;99599.66;;;19.48;55.36
39449;BME280;25151;45.566;9.382;2023-12-20T03:05:53;99597.66;;;19.49;55.63
39449;BME280;25151;45.566;9.382;2023-12-20T03:08:19;99595.63;;;19.49;55.35
39449;BME280;25151;45.566;9.382;2023-12-20T03:10:46;99602.47;;;19.48;55.66
39449;BME280;25151;45.566;9.382;2023-12-20T03:13:12;99598.09;;;19.47;55.65
39449;BME280;25151;45.566;9.382;2023-12-20T03:15:39;99592.16;;;19.45;55.45
39449;BME280;25151;45.566;9.382;2023-12-20T03:18:06;99594.50;;;19.47;55.61
39449;BME280;25151;45.566;9.382;2023-12-20T03:20:32;99593.72;;;19.46;55.48
39449;BME280;25151;45.566;9.382;2023-12-20T03:23:00;99584.56;;;19.46;55.42
39449;BME280;25151;45.566;9.382;2023-12-20T03:25:27;99583.44;;;19.43;55.52
39449;BME280;25151;45.566;9.382;2023-12-20T03:27:54;99577.84;;;19.43;55.44
39449;BME280;25151;45.566;9.382;2023-12-20T03:30:21;99565.88;;;19.42;55.37
39449;BME280;25151;45.566;9.382;2023-12-20T03:32:48;99571.47;;;19.42;55.65
39449;BME280;25151;45.566;9.382;2023-12-20T03:35:15;99570.69;;;19.42;55.54
39449;BME280;25151;45.566;9.382;2023-12-20T03:37:42;99566.66;;;19.43;55.37
39449;BME280;25151;45.566;9.382;2023-12-20T03:40:09;99559.97;;;19.40;55.54
39449;BME280;25151;45.566;9.382;2023-12-20T03:42:36;99571.16;;;19.40;55.60
39449;BME280;25151;45.566;9.382;2023-12-20T03:45:02;99557.94;;;19.41;55.66
39449;BME280;25151;45.566;9.382;2023-12-20T03:47:29;99547.19;;;19.39;55.54
39449;BME280;25151;45.566;9.382;2023-12-20T03:49:56;99543.63;;;19.39;55.54
39449;BME280;25151;45.566;9.382;2023-12-20T03:52:23;99549.22;;;19.39;55.36
39449;BME280;25151;45.566;9.382;2023-12-20T03:54:50;99561.94;;;19.40;55.52
39449;BME280;25151;45.566;9.382;2023-12-20T03:57:17;99555.56;;;19.39;55.50
39449;BME280;25151;45.566;9.382;2023-12-20T03:59:44;99549.22;;;19.39;55.47
39449;BME280;25151;45.566;9.382;2023-12-20T04:02:11;99550.91;;;19.36;55.48
39449;BME280;25151;45.566;9.382;2023-12-20T04:04:37;99548.44;;;19.38;55.57
39449;BME280;25151;45.566;9.382;2023-12-20T04:07:04;99546.09;;;19.37;55.73
39449;BME280;25151;45.566;9.382;2023-12-20T04:09:31;99542.06;;;19.38;55.50
39449;BME280;25151;45.566;9.382;2023-12-20T04:11:58;99549.66;;;19.37;55.49
39449;BME280;25151;45.566;9.382;2023-12-20T04:14:24;99556.91;;;19.35;55.49
39449;BME280;25151;45.566;9.382;2023-12-20T04:16:51;99565.31;;;19.35;55.63
39449;BME280;25151;45.566;9.382;2023-12-20T04:19:18;99570.13;;;19.34;55.56
39449;BME280;25151;45.566;9.382;2023-12-20T04:21:45;99556.91;;;19.35;55.64
39449;BME280;25151;45.566;9.382;2023-12-20T04:24:12;99545.41;;;19.33;55.61
39449;BME280;25151;45.566;9.382;2023-12-20T04:26:39;99539.06;;;19.32;55.62
39449;BME280;25151;45.566;9.382;2023-12-20T04:29:05;99533.47;;;19.32;55.69
39449;BME280;25151;45.566;9.382;2023-12-20T04:31:32;99532.66;;;19.32;55.73
39449;BME280;25151;45.566;9.382;2023-12-20T04:33:59;99531.09;;;19.31;55.63
39449;BME280;25151;45.566;9.382;2023-12-20T04:36:26;99530.66;;;19.32;55.68
39449;BME280;25151;45.566;9.382;2023-12-20T04:38:53;99527.06;;;19.32;55.47
39449;BME280;25151;45.566;9.382;2023-12-20T04:41:20;99542.28;;;19.31;55.73
39449;BME280;25151;45.566;9.382;2023-12-20T04:43:47;99551.91;;;19.30;55.71
39449;BME280;25151;45.566;9.382;2023-12-20T04:46:14;99547.53;;;19.29;55.48
39449;BME280;25151;45.566;9.382;2023-12-20T04:48:41;99547.53;;;19.29;55.64
39449;BME280;25151;45.566;9.382;2023-12-20T04:51:08;99532.78;;;19.28;55.58
39449;BME280;25151;45.566;9.382;2023-12-20T04:53:35;99533.56;;;19.29;55.44
39449;BME280;25151;45.566;9.382;2023-12-20T04:56:01;99518.47;;;19.26;55.53
39449;BME280;25151;45.566;9.382;2023-12-20T04:58:29;99517.69;;;19.26;55.70
39449;BME280;25151;45.566;9.382;2023-12-20T05:00:56;99507.28;;;19.26;55.63
39449;BME280;25151;45.566;9.382;2023-12-20T05:03:23;99488.16;;;19.25;55.48
39449;BME280;25151;45.566;9.382;2023-12-20T05:05:50;99486.16;;;19.25;55.61
39449;BME280;25151;45.566;9.382;2023-12-20T05:08:16;99495.31;;;19.26;55.63
39449;BME280;25151;45.566;9.382;2023-12-20T05:10:43;99512.09;;;19.26;55.65
39449;BME280;25151;45.566;9.382;2023-12-20T05:13:11;99506.50;;;19.26;55.55
39449;BME280;25151;45.566;9.382;2023-12-20T05:15:37;99496.56;;;19.25;55.69
39449;BME280;25151;45.566;9.382;2023-12-20T05:18:04;99495.44;;;19.22;55.72
39449;BME280;25151;45.566;9.382;2023-12-20T05:20:31;99493.41;;;19.23;55.56
39449;BME280;25151;45.566;9.382;2023-12-20T05:22:58;99504.13;;;19.24;55.54
39449;BME280;25151;45.566;9.382;2023-12-20T05:25:25;99514.53;;;19.24;55.44
39449;BME280;25151;45.566;9.382;2023-12-20T05:27:52;99489.38;;;19.24;55.68
39449;BME280;25151;45.566;9.382;2023-12-20T05:30:19;99475.41;;;19.24;55.68
39449;BME280;25151;45.566;9.382;2023-12-20T05:32:46;99478.66;;;19.22;55.69
39449;BME280;25151;45.566;9.382;2023-12-20T05:35:13;99488.59;;;19.23;55.59
39449;BME280;25151;45.566;9.382;2023-12-20T05:37:40;99490.63;;;19.23;55.62
39449;BME280;25151;45.566;9.382;2023-12-20T05:40:07;99490.28;;;19.21;55.58
39449;BME280;25151;45.566;9.382;2023-12-20T05:42:37;99505.47;;;19.20;55.73
39449;BME280;25151;45.566;9.382;2023-12-20T05:45:06;99507.06;;;19.21;55.65
39449;BME280;25151;45.566;9.382;2023-12-20T05:47:33;99502.69;;;19.20;55.77
39449;BME280;25151;45.566;9.382;2023-12-20T05:50:00;99495.53;;;19.19;55.59
39449;BME280;25151;45.566;9.382;2023-12-20T05:52:27;99488.38;;;19.17;55.74
39449;BME280;25151;45.566;9.382;2023-12-20T05:54:55;99493.97;;;19.17;55.69
39449;BME280;25151;45.566;9.382;2023-12-20T05:57:23;99493.97;;;19.17;55.60
39449;BME280;25151;45.566;9.382;2023-12-20T05:59:50;99482.81;;;19.17;55.47
39449;BME280;25151;45.566;9.382;2023-12-20T06:02:17;99465.69;;;19.15;55.68
39449;BME280;25151;45.566;9.382;2023-12-20T06:04:44;99462.88;;;19.15;55.73
39449;BME280;25151;45.566;9.382;2023-12-20T06:07:14;99462.09;;;19.15;55.68
39449;BME280;25151;45.566;9.382;2023-12-20T06:09:42;99459.31;;;19.15;55.70
39449;BME280;25151;45.566;9.382;2023-12-20T06:12:09;99478.09;;;19.14;55.84
39449;BME280;25151;45.566;9.382;2023-12-20T06:14:36;99489.28;;;19.14;55.67
39449;BME280;25151;45.566;9.382;2023-12-20T06:17:03;99491.28;;;19.14;55.63
39449;BME280;25151;45.566;9.382;2023-12-20T06:19:30;99498.13;;;19.13;55.60
39449;BME280;25151;45.566;9.382;2023-12-20T06:21:57;99505.28;;;19.14;55.69
39449;BME280;25151;45.566;9.382;2023-12-20T06:24:23;99502.94;;;19.12;55.62
39449;BME280;25151;45.566;9.382;2023-12-20T06:26:53;99506.94;;;19.11;55.54
39449;BME280;25151;45.566;9.382;2023-12-20T06:29:21;99501.34;;;19.11;55.59
39449;BME280;25151;45.566;9.382;2023-12-20T06:31:48;99510.09;;;19.13;55.69
39449;BME280;25151;45.566;9.382;2023-12-20T06:34:15;99514.13;;;19.12;55.58
39449;BME280;25151;45.566;9.382;2023-12-20T06:36:42;99516.56;;;19.10;55.70
39449;BME280;25151;45.566;9.382;2023-12-20T06:39:09;99515.66;;;19.13;55.72
39449;BME280;25151;45.566;9.382;2023-12-20T06:41:38;99508.94;;;19.11;55.59
39449;BME280;25151;45.566;9.382;2023-12-20T06:44:05;99503.81;;;19.09;55.66
39449;BME280;25151;45.566;9.382;2023-12-20T06:46:32;99510.97;;;19.10;55.66
39449;BME280;25151;45.566;9.382;2023-12-20T06:48:59;99507.38;;;19.10;55.80
39449;BME280;25151;45.566;9.382;2023-12-20T06:51:26;99502.59;;;19.10;55.67
39449;BME280;25151;45.566;9.382;2023-12-20T06:53:53;99509.41;;;19.09;55.51
39449;BME280;25151;45.566;9.382;2023-12-20T06:56:21;99501.03;;;19.09;55.67
39449;BME280;25151;45.566;9.382;2023-12-20T06:58:48;99499.44;;;19.08;55.76
39449;BME280;25151;45.566;9.382;2023-12-20T07:01:16;99503.81;;;19.09;55.68
39449;BME280;25151;45.566;9.382;2023-12-20T07:03:43;99495.09;;;19.07;55.73
39449;BME280;25151;45.566;9.382;2023-12-20T07:06:10;99492.28;;;19.07;55.81
39449;BME280;25151;45.566;9.382;2023-12-20T07:08:37;99490.72;;;19.06;55.82
39449;BME280;25151;45.566;9.382;2023-12-20T07:11:04;99498.34;;;19.06;55.65
39449;BME280;25151;45.566;9.382;2023-12-20T07:13:32;99494.75;;;19.05;55.72
39449;BME280;25151;45.566;9.382;2023-12-20T07:15:59;99485.16;;;19.06;55.69
39449;BME280;25151;45.566;9.382;2023-12-20T07:18:27;99484.78;;;19.04;55.79
39449;BME280;25151;45.566;9.382;2023-12-20T07:20:54;99481.22;;;19.04;55.80
39449;BME280;25151;45.566;9.382;2023-12-20T07:23:23;99475.19;;;19.05;55.83
39449;BME280;25151;45.566;9.382;2023-12-20T07:25:52;99479.19;;;19.04;55.70
39449;BME280;25151;45.566;9.382;2023-12-20T07:28:21;99478.00;;;19.05;55.70
39449;BME280;25151;45.566;9.382;2023-12-20T07:30:49;99475.19;;;19.05;55.68
39449;BME280;25151;45.566;9.382;2023-12-20T07:33:16;99469.63;;;19.05;55.68
39449;BME280;25151;45.566;9.382;2023-12-20T07:35:43;99475.88;;;19.09;55.68
39449;BME280;25151;45.566;9.382;2023-12-20T07:38:11;99487.81;;;19.10;55.78
39449;BME280;25151;45.566;9.382;2023-12-20T07:40:38;99481.78;;;19.11;55.57
39449;BME280;25151;45.566;9.382;2023-12-20T07:43:05;99479.34;;;19.13;55.68
39449;BME280;25151;45.566;9.382;2023-12-20T07:45:32;99478.75;;;19.19;55.59
39449;BME280;25151;45.566;9.382;2023-12-20T07:47:59;99474.72;;;19.20;55.44
39449;BME280;25151;45.566;9.382;2023-12-20T07:50:26;99469.81;;;19.24;55.36
39449;BME280;25151;45.566;9.382;2023-12-20T07:52:53;99473.72;;;19.26;55.39
39449;BME280;25151;45.566;9.382;2023-12-20T07:55:21;99468.81;;;19.30;55.42
39449;BME280;25151;45.566;9.382;2023-12-20T07:57:48;99471.50;;;19.34;55.36
39449;BME280;25151;45.566;9.382;2023-12-20T08:00:15;99469.81;;;19.36;55.31
39449;BME280;25151;45.566;9.382;2023-12-20T08:02:41;99470.91;;;19.39;55.15
39449;BME280;25151;45.566;9.382;2023-12-20T08:05:08;99475.03;;;19.47;54.95
39449;BME280;25151;45.566;9.382;2023-12-20T08:07:35;99473.69;;;19.52;54.85
39449;BME280;25151;45.566;9.382;2023-12-20T08:10:02;99482.75;;;19.56;55.12
39449;BME280;25151;45.566;9.382;2023-12-20T08:12:29;99482.19;;;19.61;55.06
39449;BME280;25151;45.566;9.382;2023-12-20T08:14:56;99476.50;;;19.64;54.84
39449;BME280;25151;45.566;9.382;2023-12-20T08:17:23;99479.38;;;19.74;54.77
39449;BME280;25151;45.566;9.382;2023-12-20T08:19:48;99484.09;;;19.77;54.98
39449;BME280;25151;45.566;9.382;2023-12-20T08:22:14;99480.72;;;19.82;54.93
39449;BME280;25151;45.566;9.382;2023-12-20T08:24:40;99476.56;;;19.86;54.79
39449;BME280;25151;45.566;9.382;2023-12-20T08:27:06;99483.59;;;19.91;54.93
39449;BME280;25151;45.566;9.382;2023-12-20T08:29:35;99479.88;;;19.94;54.86
39449;BME280;25151;45.566;9.382;2023-12-20T08:32:02;99476.19;;;19.97;54.86
39449;BME280;25151;45.566;9.382;2023-12-20T08:34:29;99486.78;;;20.02;54.58
39449;BME280;25151;45.566;9.382;2023-12-20T08:36:55;99475.94;;;20.04;54.78
39449;BME280;25151;45.566;9.382;2023-12-20T08:39:22;99480.59;;;20.07;54.49
39449;BME280;25151;45.566;9.382;2023-12-20T08:41:49;99475.00;;;20.07;54.54
39449;BME280;25151;45.566;9.382;2023-12-20T08:44:15;99467.72;;;20.10;54.51
39449;BME280;25151;45.566;9.382;2023-12-20T08:46:41;99464.50;;;20.11;54.54
39449;BME280;25151;45.566;9.382;2023-12-20T08:49:07;99473.56;;;20.16;54.60
39449;BME280;25151;45.566;9.382;2023-12-20T08:51:35;99469.81;;;20.19;54.83
39449;BME280;25151;45.566;9.382;2023-12-20T08:54:00;99469.81;;;20.19;54.77
39449;BME280;25151;45.566;9.382;2023-12-20T08:56:26;99465.00;;;20.19;54.68
39449;BME280;25151;45.566;9.382;2023-12-20T08:58:52;99466.72;;;20.17;54.52
39449;BME280;25151;45.566;9.382;2023-12-20T09:01:20;99457.97;;;20.14;54.52
39449;BME280;25151;45.566;9.382;2023-12-20T09:03:46;99446.78;;;20.14;54.64
39449;BME280;25151;45.566;9.382;2023-12-20T09:06:12;99460.75;;;20.14;54.62
39449;BME280;25151;45.566;9.382;2023-12-20T09:08:38;99453.63;;;20.13;54.71
39449;BME280;25151;45.566;9.382;2023-12-20T09:11:04;99452.84;;;20.13;54.80
39449;BME280;25151;45.566;9.382;2023-12-20T09:13:31;99452.38;;;20.14;54.27
39449;BME280;25151;45.566;9.382;2023-12-20T09:15:58;99459.22;;;20.13;54.56
39449;BME280;25151;45.566;9.382;2023-12-20T09:18:25;99458.75;;;20.15;54.31
39449;BME280;25151;45.566;9.382;2023-12-20T09:20:51;99449.91;;;20.17;54.35
39449;BME280;25151;45.566;9.382;2023-12-20T09:23:17;99436.34;;;20.15;54.23
39449;BME280;25151;45.566;9.382;2023-12-20T09:25:44;99447.41;;;20.19;54.56
39449;BME280;25151;45.566;9.382;2023-12-20T09:28:10;99449.91;;;20.17;54.17
39449;BME280;25151;45.566;9.382;2023-12-20T09:30:36;99455.50;;;20.17;54.21
39449;BME280;25151;45.566;9.382;2023-12-20T09:33:05;99457.06;;;20.18;54.50
39449;BME280;25151;45.566;9.382;2023-12-20T09:35:33;99458.19;;;20.20;54.42
39449;BME280;25151;45.566;9.382;2023-12-20T09:37:59;99459.28;;;20.23;54.09
39449;BME280;25151;45.566;9.382;2023-12-20T09:40:26;99467.22;;;20.24;54.25
39449;BME280;25151;45.566;9.382;2023-12-20T09:43:14;99470.22;;;20.30;54.04
39449;BME280;25151;45.566;9.382;2023-12-20T09:45:43;99478.97;;;20.32;54.01
39449;BME280;25151;45.566;9.382;2023-12-20T09:48:11;99469.63;;;20.35;54.14
39449;BME280;25151;45.566;9.382;2023-12-20T09:50:38;99466.13;;;20.44;53.84
39449;BME280;25151;45.566;9.382;2023-12-20T09:53:05;99462.53;;;20.43;53.82
39449;BME280;25151;45.566;9.382;2023-12-20T09:55:36;99470.34;;;20.48;53.96
39449;BME280;25151;45.566;9.382;2023-12-20T09:58:03;99467.22;;;20.46;53.79
39449;BME280;25151;45.566;9.382;2023-12-20T10:00:30;99464.09;;;20.44;53.72
39449;BME280;25151;45.566;9.382;2023-12-20T10:02:58;99465.66;;;20.45;53.74
39449;BME280;25151;45.566;9.382;2023-12-20T10:05:30;99460.06;;;20.45;53.91
39449;BME280;25151;45.566;9.382;2023-12-20T10:07:58;99452.78;;;20.48;53.93
39449;BME280;25151;45.566;9.382;2023-12-20T10:10:26;99445.94;;;20.49;53.78
39449;BME280;25151;45.566;9.382;2023-12-20T10:13:03;99447.06;;;20.51;53.74
39449;BME280;25151;45.566;9.382;2023-12-20T10:15:34;99447.06;;;20.51;53.95
39449;BME280;25151;45.566;9.382;2023-12-20T10:18:01;99441.47;;;20.51;53.92
39449;BME280;25151;45.566;9.382;2023-12-20T10:20:29;99441.78;;;20.53;53.71
39449;BME280;25151;45.566;9.382;2023-12-20T10:23:00;99442.13;;;20.55;53.60
39449;BME280;25151;45.566;9.382;2023-12-20T10:25:27;99451.16;;;20.59;53.80
39449;BME280;25151;45.566;9.382;2023-12-20T10:28:23;99459.28;;;20.67;53.44
39449;BME280;25151;45.566;9.382;2023-12-20T10:30:53;99454.13;;;20.65;53.53
39449;BME280;25151;45.566;9.382;2023-12-20T10:33:26;99438.56;;;20.64;53.89
39449;BME280;25151;45.566;9.382;2023-12-20T10:35:55;99444.94;;;20.65;53.75
39449;BME280;25151;45.566;9.382;2023-12-20T10:38:21;99447.28;;;20.66;53.50
39449;BME280;25151;45.566;9.382;2023-12-20T10:40:56;99427.69;;;20.66;53.49
39449;BME280;25151;45.566;9.382;2023-12-20T10:43:29;99404.97;;;20.64;53.63
39449;BME280;25151;45.566;9.382;2023-12-20T10:45:56;99408.19;;;20.62;53.22
39449;BME280;25151;45.566;9.382;2023-12-20T10:48:24;99407.91;;;20.60;53.32
39449;BME280;25151;45.566;9.382;2023-12-20T10:50:56;99408.53;;;20.65;52.96
39449;BME280;25151;45.566;9.382;2023-12-20T10:53:26;99415.06;;;20.61;53.22
39449;BME280;25151;45.566;9.382;2023-12-20T10:55:56;99420.66;;;20.61;52.91
39449;BME280;25151;45.566;9.382;2023-12-20T10:58:27;99408.84;;;20.67;53.12
39449;BME280;25151;45.566;9.382;2023-12-20T11:01:00;99394.91;;;20.76;52.88
39449;BME280;25151;45.566;9.382;2023-12-20T11:03:34;99399.09;;;20.71;52.97
39449;BME280;25151;45.566;9.382;2023-12-20T11:09:13;99400.13;;;20.65;53.12
39449;BME280;25151;45.566;9.382;2023-12-20T11:14:43;99383.63;;;20.67;53.16
39449;BME280;25151;45.566;9.382;2023-12-20T11:17:12;99381.00;;;20.63;53.39
39449;BME280;25151;45.566;9.382;2023-12-20T11:22:22;99367.91;;;20.60;53.55
39449;BME280;25151;45.566;9.382;2023-12-20T11:24:51;99369.59;;;20.57;53.36
39449;BME280;25151;45.566;9.382;2023-12-20T11:27:19;99375.31;;;20.54;53.50
39449;BME280;25151;45.566;9.382;2023-12-20T11:29:54;99388.56;;;20.53;53.49
39449;BME280;25151;45.566;9.382;2023-12-20T11:37:39;99370.09;;;20.65;53.43
39449;BME280;25151;45.566;9.382;2023-12-20T11:40:16;99375.22;;;20.67;53.67
39449;BME280;25151;45.566;9.382;2023-12-20T11:42:51;99374.44;;;20.66;53.58
39449;BME280;25151;45.566;9.382;2023-12-20T11:45:21;99380.25;;;20.72;53.39
39449;BME280;25151;45.566;9.382;2023-12-20T11:47:50;99371.38;;;20.73;53.41
39449;BME280;25151;45.566;9.382;2023-12-20T11:50:21;99376.03;;;20.67;53.59
39449;BME280;25151;45.566;9.382;2023-12-20T11:52:49;99364.97;;;20.63;53.96
39449;BME280;25151;45.566;9.382;2023-12-20T11:55:16;99365.75;;;20.64;54.01
39449;BME280;25151;45.566;9.382;2023-12-20T11:57:45;99378.34;;;20.69;53.92
39449;BME280;25151;45.566;9.382;2023-12-20T12:00:13;99374.00;;;20.68;53.62
39449;BME280;25151;45.566;9.382;2023-12-20T12:02:41;99368.06;;;20.66;54.07
39449;BME280;25151;45.566;9.382;2023-12-20T12:05:09;99364.34;;;20.69;53.94
39449;BME280;25151;45.566;9.382;2023-12-20T12:07:36;99362.47;;;20.66;53.98
39449;BME280;25151;45.566;9.382;2023-12-20T12:10:06;99351.25;;;20.66;53.92
39449;BME280;25151;45.566;9.382;2023-12-20T12:12:34;99351.25;;;20.66;53.90
39449;BME280;25151;45.566;9.382;2023-12-20T12:15:02;99354.69;;;20.70;54.08
39449;BME280;25151;45.566;9.382;2023-12-20T12:17:30;99348.78;;;20.68;53.74
39449;BME280;25151;45.566;9.382;2023-12-20T12:20:05;99352.81;;;20.67;54.23
39449;BME280;25151;45.566;9.382;2023-12-20T12:22:32;99349.69;;;20.65;53.77
39449;BME280;25151;45.566;9.382;2023-12-20T12:25:10;99346.91;;;20.65;54.26
39449;BME280;25151;45.566;9.382;2023-12-20T12:27:39;99340.97;;;20.62;54.13
39449;BME280;25151;45.566;9.382;2023-12-20T12:30:08;99340.06;;;20.66;54.26
39449;BME280;25151;45.566;9.382;2023-12-20T12:32:36;99337.59;;;20.68;54.13
39449;BME280;25151;45.566;9.382;2023-12-20T12:35:04;99324.84;;;20.76;53.99
39449;BME280;25151;45.566;9.382;2023-12-20T12:37:38;99331.72;;;20.84;54.17
39449;BME280;25151;45.566;9.382;2023-12-20T12:40:15;99329.84;;;20.81;53.68
39449;BME280;25151;45.566;9.382;2023-12-20T12:42:46;99337.94;;;20.79;54.18
39449;BME280;25151;45.566;9.382;2023-12-20T12:45:13;99332.34;;;20.79;54.02
39449;BME280;25151;45.566;9.382;2023-12-20T12:47:41;99326.72;;;20.79;54.01
39449;BME280;25151;45.566;9.382;2023-12-20T12:50:09;99306.31;;;20.78;53.69
39449;BME280;25151;45.566;9.382;2023-12-20T12:52:36;99307.56;;;20.77;53.79
39449;BME280;25151;45.566;9.382;2023-12-20T12:55:03;99299.94;;;20.78;53.84
39449;BME280;25151;45.566;9.382;2023-12-20T12:57:30;99308.34;;;20.78;53.74
39449;BME280;25151;45.566;9.382;2023-12-20T12:59:57;99305.22;;;20.76;53.99
39449;BME280;25151;45.566;9.382;2023-12-20T13:02:24;99305.38;;;20.72;53.73
39449;BME280;25151;45.566;9.382;2023-12-20T13:04:52;99311.91;;;20.69;54.09
39449;BME280;25151;45.566;9.382;2023-12-20T13:07:19;99316.09;;;20.65;53.87
39449;BME280;25151;45.566;9.382;2023-12-20T13:09:45;99304.09;;;20.64;53.88
39449;BME280;25151;45.566;9.382;2023-12-20T13:12:12;99294.16;;;20.63;54.16
39449;BME280;25151;45.566;9.382;2023-12-20T13:14:40;99285.88;;;20.59;54.18
39449;BME280;25151;45.566;9.382;2023-12-20T13:17:07;99291.78;;;20.61;54.17